sensor_id;sensor_type;location;lat;lon;timestamp;pressure;altitude;pressure_sealevel;temperature;humidity
10978;BME280;5542;48.272;10.794;2023-03-13T00:02:13;95329.50;;;7.18;79.58
10978;BME280;5542;48.272;10.794;2023-03-13T00:04:42;95334.22;;;7.28;79.34
10978;BME280;5542;48.272;10.794;2023-03-13T00:07:09;95326.16;;;7.29;79.28
10978;BME280;5542;48.272;10.794;2023-03-13T00:09:38;95332.69;;;7.20;79.69
10978;BME280;5542;48.272;10.794;2023-03-13T00:12:06;95320.63;;;7.19;79.50
10978;BME280;5542;48.272;10.794;2023-03-13T00:14:33;95317.00;;;7.20;79.41
10978;BME280;5542;48.272;10.794;2023-03-13T00:17:01;95313.69;;;7.06;79.93
10978;BME280;5542;48.272;10.794;2023-03-13T00:19:38;95322.94;;;7.09;79.88
10978;BME280;5542;48.272;10.794;2023-03-13T00:22:09;95321.06;;;7.16;79.52
10978;BME280;5542;48.272;10.794;2023-03-13T00:24:37;95328.75;;;7.11;79.92
10978;BME280;5542;48.272;10.794;2023-03-13T00:27:04;95314.75;;;7.24;79.17
10978;BME280;5542;48.272;10.794;2023-03-13T00:29:36;95321.13;;;7.09;79.81
10978;BME280;5542;48.272;10.794;2023-03-13T00:32:04;95327.31;;;7.15;79.83
10978;BME280;5542;48.272;10.794;2023-03-13T00:34:36;95316.53;;;7.05;80.08
10978;BME280;5542;48.272;10.794;2023-03-13T00:37:04;95314.13;;;6.85;80.91
10978;BME280;5542;48.272;10.794;2023-03-13T00:39:34;95315.63;;;6.92;80.53
10978;BME280;5542;48.272;10.794;2023-03-13T00:42:02;95300.56;;;6.95;80.47
10978;BME280;5542;48.272;10.794;2023-03-13T00:44:30;95296.63;;;6.85;80.84
10978;BME280;5542;48.272;10.794;2023-03-13T00:46:59;95297.94;;;6.95;80.15
10978;BME280;5542;48.272;10.794;2023-03-13T00:49:30;95298.97;;;6.93;80.23
10978;BME280;5542;48.272;10.794;2023-03-13T00:51:57;95294.09;;;6.97;80.59
10978;BME280;5542;48.272;10.794;2023-03-13T00:54:26;95286.88;;;6.92;80.97
10978;BME280;5542;48.272;10.794;2023-03-13T00:57:06;95292.72;;;6.95;80.21
10978;BME280;5542;48.272;10.794;2023-03-13T00:59:34;95294.31;;;6.96;80.17
10978;BME280;5542;48.272;10.794;2023-03-13T01:02:06;95297.94;;;6.95;80.43
10978;BME280;5542;48.272;10.794;2023-03-13T01:04:34;95290.28;;;6.93;80.17
10978;BME280;5542;48.272;10.794;2023-03-13T01:07:04;95284.75;;;7.08;79.86
10978;BME280;5542;48.272;10.794;2023-03-13T01:09:32;95280.88;;;7.10;79.45
10978;BME280;5542;48.272;10.794;2023-03-13T01:12:01;95287.50;;;7.13;79.18
10978;BME280;5542;48.272;10.794;2023-03-13T01:14:30;95274.88;;;7.28;78.54
10978;BME280;5542;48.272;10.794;2023-03-13T01:16:58;95280.31;;;7.27;78.39
10978;BME280;5542;48.272;10.794;2023-03-13T01:19:26;95283.00;;;7.20;78.42
10978;BME280;5542;48.272;10.794;2023-03-13T01:21:53;95266.72;;;7.18;78.61
10978;BME280;5542;48.272;10.794;2023-03-13T01:24:21;95268.09;;;7.02;79.34
10978;BME280;5542;48.272;10.794;2023-03-13T01:27:03;95273.56;;;7.19;78.71
10978;BME280;5542;48.272;10.794;2023-03-13T01:29:43;95265.56;;;7.14;78.43
10978;BME280;5542;48.272;10.794;2023-03-13T01:32:13;95261.50;;;7.18;78.52
10978;BME280;5542;48.272;10.794;2023-03-13T01:34:41;95259.44;;;7.20;78.32
10978;BME280;5542;48.272;10.794;2023-03-13T01:37:09;95255.25;;;7.19;78.35
10978;BME280;5542;48.272;10.794;2023-03-13T01:39:37;95256.31;;;7.30;77.59
10978;BME280;5542;48.272;10.794;2023-03-13T01:42:06;95243.56;;;7.22;78.02
10978;BME280;5542;48.272;10.794;2023-03-13T01:44:51;95237.31;;;7.23;77.78
10978;BME280;5542;48.272;10.794;2023-03-13T01:48:44;95231.84;;;7.24;78.39
10978;BME280;5542;48.272;10.794;2023-03-13T01:52:02;95238.47;;;7.27;77.88
10978;BME280;5542;48.272;10.794;2023-03-13T01:54:43;95242.03;;;7.14;78.56
10978;BME280;5542;48.272;10.794;2023-03-13T01:57:39;95245.53;;;7.08;78.81
10978;BME280;5542;48.272;10.794;2023-03-13T02:01:02;95246.97;;;7.04;79.04
10978;BME280;5542;48.272;10.794;2023-03-13T02:04:07;95239.78;;;7.36;77.15
10978;BME280;5542;48.272;10.794;2023-03-13T02:06:37;95243.75;;;7.20;77.62
10978;BME280;5542;48.272;10.794;2023-03-13T02:09:09;95240.94;;;7.22;77.43
10978;BME280;5542;48.272;10.794;2023-03-13T02:11:46;95244.78;;;7.19;77.45
10978;BME280;5542;48.272;10.794;2023-03-13T02:14:15;95242.81;;;7.14;77.67
10978;BME280;5542;48.272;10.794;2023-03-13T02:16:45;95240.56;;;7.36;76.83
10978;BME280;5542;48.272;10.794;2023-03-13T02:19:19;95231.84;;;7.42;76.75
10978;BME280;5542;48.272;10.794;2023-03-13T02:21:53;95225.56;;;7.43;76.39
10978;BME280;5542;48.272;10.794;2023-03-13T02:24:29;95228.56;;;7.47;75.86
10978;BME280;5542;48.272;10.794;2023-03-13T02:27:00;95232.13;;;7.34;76.74
10978;BME280;5542;48.272;10.794;2023-03-13T02:29:28;95236.50;;;7.22;77.30
10978;BME280;5542;48.272;10.794;2023-03-13T02:31:55;95235.63;;;7.28;77.27
10978;BME280;5542;48.272;10.794;2023-03-13T02:34:31;95233.44;;;7.43;76.42
10978;BME280;5542;48.272;10.794;2023-03-13T02:37:02;95233.19;;;7.45;76.24
10978;BME280;5542;48.272;10.794;2023-03-13T02:39:33;95239.19;;;7.34;76.58
10978;BME280;5542;48.272;10.794;2023-03-13T02:42:02;95231.31;;;7.52;75.80
10978;BME280;5542;48.272;10.794;2023-03-13T02:44:31;95230.59;;;7.45;75.72
10978;BME280;5542;48.272;10.794;2023-03-13T02:46:58;95237.72;;;7.38;75.76
10978;BME280;5542;48.272;10.794;2023-03-13T02:49:26;95232.34;;;7.51;75.58
10978;BME280;5542;48.272;10.794;2023-03-13T02:51:56;95229.22;;;7.42;76.08
10978;BME280;5542;48.272;10.794;2023-03-13T02:54:29;95226.44;;;7.56;75.36
10978;BME280;5542;48.272;10.794;2023-03-13T02:57:03;95223.97;;;7.61;74.95
10978;BME280;5542;48.272;10.794;2023-03-13T02:59:30;95231.75;;;7.49;75.45
10978;BME280;5542;48.272;10.794;2023-03-13T03:01:58;95231.81;;;7.61;74.96
10978;BME280;5542;48.272;10.794;2023-03-13T03:04:25;95227.97;;;7.45;75.69
10978;BME280;5542;48.272;10.794;2023-03-13T03:06:53;95223.69;;;7.51;75.15
10978;BME280;5542;48.272;10.794;2023-03-13T03:09:21;95221.22;;;7.56;75.04
10978;BME280;5542;48.272;10.794;2023-03-13T03:11:49;95222.53;;;7.47;75.56
10978;BME280;5542;48.272;10.794;2023-03-13T03:14:17;95223.50;;;7.64;74.74
10978;BME280;5542;48.272;10.794;2023-03-13T03:16:44;95220.72;;;7.77;74.42
10978;BME280;5542;48.272;10.794;2023-03-13T03:19:11;95213.31;;;7.74;74.17
10978;BME280;5542;48.272;10.794;2023-03-13T03:21:38;95207.63;;;7.77;74.15
10978;BME280;5542;48.272;10.794;2023-03-13T03:24:06;95212.38;;;7.68;74.34
10978;BME280;5542;48.272;10.794;2023-03-13T03:26:34;95215.22;;;7.67;74.19
10978;BME280;5542;48.272;10.794;2023-03-13T03:29:01;95201.59;;;7.77;73.77
10978;BME280;5542;48.272;10.794;2023-03-13T03:31:30;95187.13;;;7.74;74.32
10978;BME280;5542;48.272;10.794;2023-03-13T03:33:57;95192.88;;;7.94;73.41
10978;BME280;5542;48.272;10.794;2023-03-13T03:36:24;95184.16;;;7.70;74.13
10978;BME280;5542;48.272;10.794;2023-03-13T03:38:51;95185.63;;;7.66;74.49
10978;BME280;5542;48.272;10.794;2023-03-13T03:41:18;95179.13;;;7.69;74.20
10978;BME280;5542;48.272;10.794;2023-03-13T03:43:46;95175.16;;;7.66;74.60
10978;BME280;5542;48.272;10.794;2023-03-13T03:46:13;95173.91;;;7.69;74.42
10978;BME280;5542;48.272;10.794;2023-03-13T03:48:42;95165.47;;;7.67;74.71
10978;BME280;5542;48.272;10.794;2023-03-13T03:51:10;95167.53;;;7.65;74.72
10978;BME280;5542;48.272;10.794;2023-03-13T03:53:37;95154.56;;;7.70;74.40
10978;BME280;5542;48.272;10.794;2023-03-13T03:56:05;95157.22;;;7.82;73.85
10978;BME280;5542;48.272;10.794;2023-03-13T03:58:32;95153.56;;;7.83;73.63
10978;BME280;5542;48.272;10.794;2023-03-13T04:00:59;95145.38;;;7.79;73.72
10978;BME280;5542;48.272;10.794;2023-03-13T04:03:26;95142.88;;;7.84;73.30
10978;BME280;5542;48.272;10.794;2023-03-13T04:05:55;95143.44;;;7.86;72.98
10978;BME280;5542;48.272;10.794;2023-03-13T04:08:22;95135.28;;;7.94;72.55
10978;BME280;5542;48.272;10.794;2023-03-13T04:10:49;95136.19;;;7.88;73.15
10978;BME280;5542;48.272;10.794;2023-03-13T04:13:16;95132.97;;;7.86;72.81
10978;BME280;5542;48.272;10.794;2023-03-13T04:15:43;95132.88;;;7.93;72.52
10978;BME280;5542;48.272;10.794;2023-03-13T04:18:10;95122.41;;;8.05;71.80
10978;BME280;5542;48.272;10.794;2023-03-13T04:20:37;95135.06;;;8.08;71.70
10978;BME280;5542;48.272;10.794;2023-03-13T04:23:06;95133.81;;;8.10;71.47
10978;BME280;5542;48.272;10.794;2023-03-13T04:25:33;95130.41;;;8.21;70.86
10978;BME280;5542;48.272;10.794;2023-03-13T04:28:00;95134.16;;;8.14;71.17
10978;BME280;5542;48.272;10.794;2023-03-13T04:30:27;95120.03;;;8.15;71.40
10978;BME280;5542;48.272;10.794;2023-03-13T04:32:54;95125.16;;;8.21;71.56
10978;BME280;5542;48.272;10.794;2023-03-13T04:35:21;95114.13;;;8.31;71.01
10978;BME280;5542;48.272;10.794;2023-03-13T04:37:48;95115.72;;;8.32;71.01
10978;BME280;5542;48.272;10.794;2023-03-13T04:40:17;95115.91;;;8.31;71.05
10978;BME280;5542;48.272;10.794;2023-03-13T04:42:44;95110.72;;;8.42;70.66
10978;BME280;5542;48.272;10.794;2023-03-13T04:45:11;95105.56;;;8.24;71.31
10978;BME280;5542;48.272;10.794;2023-03-13T04:47:38;95107.94;;;8.26;71.56
10978;BME280;5542;48.272;10.794;2023-03-13T04:50:06;95105.44;;;8.19;71.57
10978;BME280;5542;48.272;10.794;2023-03-13T04:52:33;95114.13;;;8.31;70.95
10978;BME280;5542;48.272;10.794;2023-03-13T04:54:59;95121.75;;;8.33;70.75
10978;BME280;5542;48.272;10.794;2023-03-13T04:57:28;95129.97;;;8.36;70.47
10978;BME280;5542;48.272;10.794;2023-03-13T04:59:55;95109.34;;;8.40;69.98
10978;BME280;5542;48.272;10.794;2023-03-13T05:03:04;95085.41;;;8.48;69.66
10978;BME280;5542;48.272;10.794;2023-03-13T05:05:32;95097.28;;;8.51;68.72
10978;BME280;5542;48.272;10.794;2023-03-13T05:07:59;95095.34;;;8.46;69.61
10978;BME280;5542;48.272;10.794;2023-03-13T05:10:28;95093.72;;;8.57;69.03
10978;BME280;5542;48.272;10.794;2023-03-13T05:12:56;95091.00;;;8.52;69.30
10978;BME280;5542;48.272;10.794;2023-03-13T05:15:23;95075.13;;;8.58;68.79
10978;BME280;5542;48.272;10.794;2023-03-13T05:17:50;95059.94;;;8.72;67.77
10978;BME280;5542;48.272;10.794;2023-03-13T05:20:17;95061.41;;;8.80;67.65
10978;BME280;5542;48.272;10.794;2023-03-13T05:22:44;95045.91;;;8.78;67.57
10978;BME280;5542;48.272;10.794;2023-03-13T05:25:11;95047.16;;;8.76;68.10
10978;BME280;5542;48.272;10.794;2023-03-13T05:27:37;95042.81;;;8.81;68.40
10978;BME280;5542;48.272;10.794;2023-03-13T05:30:07;95045.44;;;8.81;69.08
10978;BME280;5542;48.272;10.794;2023-03-13T05:32:35;95058.00;;;8.79;69.74
10978;BME280;5542;48.272;10.794;2023-03-13T05:35:02;95056.00;;;8.98;69.45
10978;BME280;5542;48.272;10.794;2023-03-13T05:37:29;95054.88;;;8.94;69.77
10978;BME280;5542;48.272;10.794;2023-03-13T05:39:56;95051.44;;;8.93;69.49
10978;BME280;5542;48.272;10.794;2023-03-13T05:42:22;95046.84;;;9.01;68.96
10978;BME280;5542;48.272;10.794;2023-03-13T05:44:50;95040.88;;;8.88;70.33
10978;BME280;5542;48.272;10.794;2023-03-13T05:47:18;95041.22;;;9.09;69.18
10978;BME280;5542;48.272;10.794;2023-03-13T05:49:45;95030.56;;;8.98;69.21
10978;BME280;5542;48.272;10.794;2023-03-13T05:52:12;95033.56;;;8.90;69.74
10978;BME280;5542;48.272;10.794;2023-03-13T05:54:38;95035.22;;;8.96;67.61
10978;BME280;5542;48.272;10.794;2023-03-13T05:57:05;95035.22;;;8.96;67.92
10978;BME280;5542;48.272;10.794;2023-03-13T05:59:31;95021.66;;;9.00;66.54
10978;BME280;5542;48.272;10.794;2023-03-13T06:01:58;95025.66;;;9.19;65.58
10978;BME280;5542;48.272;10.794;2023-03-13T06:04:26;95022.66;;;9.27;64.87
10978;BME280;5542;48.272;10.794;2023-03-13T06:06:52;95025.59;;;9.14;65.74
10978;BME280;5542;48.272;10.794;2023-03-13T06:09:19;95015.16;;;9.19;65.84
10978;BME280;5542;48.272;10.794;2023-03-13T06:11:46;95017.16;;;9.29;65.11
10978;BME280;5542;48.272;10.794;2023-03-13T06:14:12;95017.16;;;9.29;64.32
10978;BME280;5542;48.272;10.794;2023-03-13T06:16:39;95028.88;;;9.38;65.18
10978;BME280;5542;48.272;10.794;2023-03-13T06:19:06;95023.72;;;9.43;64.60
10978;BME280;5542;48.272;10.794;2023-03-13T06:21:34;95022.50;;;9.34;65.25
10978;BME280;5542;48.272;10.794;2023-03-13T06:24:00;95014.41;;;9.52;64.36
10978;BME280;5542;48.272;10.794;2023-03-13T06:26:27;95023.78;;;9.48;64.58
10978;BME280;5542;48.272;10.794;2023-03-13T06:28:54;95015.94;;;9.65;63.96
10978;BME280;5542;48.272;10.794;2023-03-13T06:31:21;95028.25;;;9.64;63.96
10978;BME280;5542;48.272;10.794;2023-03-13T06:33:47;95024.19;;;9.57;64.29
10978;BME280;5542;48.272;10.794;2023-03-13T06:36:14;95030.16;;;9.52;64.39
10978;BME280;5542;48.272;10.794;2023-03-13T06:38:42;95023.31;;;9.68;63.89
10978;BME280;5542;48.272;10.794;2023-03-13T06:41:08;95027.47;;;9.64;64.06
10978;BME280;5542;48.272;10.794;2023-03-13T06:43:35;95032.84;;;9.57;64.67
10978;BME280;5542;48.272;10.794;2023-03-13T06:46:05;95033.81;;;9.68;63.71
10978;BME280;5542;48.272;10.794;2023-03-13T06:48:32;95031.09;;;9.63;64.03
10978;BME280;5542;48.272;10.794;2023-03-13T06:50:59;95021.72;;;9.67;64.27
10978;BME280;5542;48.272;10.794;2023-03-13T06:53:25;95015.09;;;9.81;63.58
10978;BME280;5542;48.272;10.794;2023-03-13T06:55:53;95016.69;;;9.82;63.59
10978;BME280;5542;48.272;10.794;2023-03-13T06:58:20;95009.94;;;9.86;63.87
10978;BME280;5542;48.272;10.794;2023-03-13T07:00:46;95011.16;;;9.79;63.92
10978;BME280;5542;48.272;10.794;2023-03-13T07:03:13;94991.53;;;9.86;64.11
10978;BME280;5542;48.272;10.794;2023-03-13T07:05:40;94995.03;;;9.92;64.35
10978;BME280;5542;48.272;10.794;2023-03-13T07:08:06;94994.38;;;10.01;63.93
10978;BME280;5542;48.272;10.794;2023-03-13T07:10:33;94995.50;;;10.06;63.48
10978;BME280;5542;48.272;10.794;2023-03-13T07:13:01;94982.53;;;9.99;64.58
10978;BME280;5542;48.272;10.794;2023-03-13T07:15:28;94997.25;;;10.00;64.63
10978;BME280;5542;48.272;10.794;2023-03-13T07:17:55;94997.88;;;10.07;64.73
10978;BME280;5542;48.272;10.794;2023-03-13T07:20:22;95002.56;;;10.05;64.14
10978;BME280;5542;48.272;10.794;2023-03-13T07:22:50;94995.13;;;10.19;63.46
10978;BME280;5542;48.272;10.794;2023-03-13T07:25:17;94995.00;;;10.09;63.75
10978;BME280;5542;48.272;10.794;2023-03-13T07:27:44;94999.34;;;10.20;63.97
10978;BME280;5542;48.272;10.794;2023-03-13T07:30:12;94998.69;;;10.08;65.68
10978;BME280;5542;48.272;10.794;2023-03-13T07:32:39;94999.56;;;9.96;66.43
10978;BME280;5542;48.272;10.794;2023-03-13T07:35:06;95007.88;;;9.88;67.71
10978;BME280;5542;48.272;10.794;2023-03-13T07:37:33;95013.84;;;9.84;67.91
10978;BME280;5542;48.272;10.794;2023-03-13T07:39:59;95014.25;;;9.75;69.39
10978;BME280;5542;48.272;10.794;2023-03-13T07:42:26;95016.31;;;9.73;69.37
10978;BME280;5542;48.272;10.794;2023-03-13T07:44:53;95011.53;;;9.70;70.93
10978;BME280;5542;48.272;10.794;2023-03-13T07:47:21;95010.03;;;9.74;70.82
10978;BME280;5542;48.272;10.794;2023-03-13T07:49:47;94997.97;;;9.95;70.71
10978;BME280;5542;48.272;10.794;2023-03-13T07:52:14;94993.22;;;9.92;70.35
10978;BME280;5542;48.272;10.794;2023-03-13T07:54:42;94997.38;;;9.88;71.05
10978;BME280;5542;48.272;10.794;2023-03-13T07:57:08;95002.91;;;9.92;71.07
10978;BME280;5542;48.272;10.794;2023-03-13T07:59:35;95010.91;;;9.80;71.21
10978;BME280;5542;48.272;10.794;2023-03-13T08:02:02;95007.63;;;9.90;71.96
10978;BME280;5542;48.272;10.794;2023-03-13T08:04:30;95013.13;;;9.71;72.20
10978;BME280;5542;48.272;10.794;2023-03-13T08:06:56;95006.75;;;9.67;73.63
10978;BME280;5542;48.272;10.794;2023-03-13T08:09:24;95011.94;;;9.79;73.13
10978;BME280;5542;48.272;10.794;2023-03-13T08:11:50;95019.41;;;9.87;71.31
10978;BME280;5542;48.272;10.794;2023-03-13T08:14:17;95012.16;;;9.94;71.50
10978;BME280;5542;48.272;10.794;2023-03-13T08:16:44;95007.56;;;10.23;70.87
10978;BME280;5542;48.272;10.794;2023-03-13T08:19:10;95002.09;;;10.47;69.56
10978;BME280;5542;48.272;10.794;2023-03-13T08:21:38;94992.91;;;10.71;68.56
10978;BME280;5542;48.272;10.794;2023-03-13T08:24:06;94991.25;;;10.87;67.12
10978;BME280;5542;48.272;10.794;2023-03-13T08:26:35;94992.47;;;10.80;66.43
10978;BME280;5542;48.272;10.794;2023-03-13T08:29:04;94985.91;;;10.82;66.55
10978;BME280;5542;48.272;10.794;2023-03-13T08:31:33;94984.28;;;10.76;66.70
10978;BME280;5542;48.272;10.794;2023-03-13T08:34:01;94985.44;;;10.85;66.45
10978;BME280;5542;48.272;10.794;2023-03-13T08:36:29;94985.91;;;10.82;66.52
10978;BME280;5542;48.272;10.794;2023-03-13T08:38:59;94988.22;;;10.73;65.67
10978;BME280;5542;48.272;10.794;2023-03-13T08:41:27;94986.91;;;10.76;65.83
10978;BME280;5542;48.272;10.794;2023-03-13T08:43:55;94991.31;;;10.92;65.02
10978;BME280;5542;48.272;10.794;2023-03-13T08:46:22;94984.59;;;11.07;64.54
10978;BME280;5542;48.272;10.794;2023-03-13T08:48:49;94980.03;;;11.29;62.65
10978;BME280;5542;48.272;10.794;2023-03-13T08:51:17;94991.56;;;11.50;63.56
10978;BME280;5542;48.272;10.794;2023-03-13T08:53:44;94981.75;;;11.77;61.11
10978;BME280;5542;48.272;10.794;2023-03-13T08:56:14;94985.41;;;11.76;60.88
10978;BME280;5542;48.272;10.794;2023-03-13T08:58:41;94983.84;;;11.75;61.32
10978;BME280;5542;48.272;10.794;2023-03-13T09:01:09;94980.44;;;11.80;60.90
10978;BME280;5542;48.272;10.794;2023-03-13T09:03:36;94968.47;;;11.99;59.78
10978;BME280;5542;48.272;10.794;2023-03-13T09:06:03;94958.63;;;12.37;58.20
10978;BME280;5542;48.272;10.794;2023-03-13T09:08:31;94963.41;;;12.40;58.10
10978;BME280;5542;48.272;10.794;2023-03-13T09:10:59;94947.66;;;12.61;57.39
10978;BME280;5542;48.272;10.794;2023-03-13T09:13:28;94947.97;;;12.90;56.35
10978;BME280;5542;48.272;10.794;2023-03-13T09:15:56;94936.66;;;13.15;55.20
10978;BME280;5542;48.272;10.794;2023-03-13T09:18:23;94945.16;;;13.32;55.36
10978;BME280;5542;48.272;10.794;2023-03-13T09:20:50;94933.00;;;13.36;55.13
10978;BME280;5542;48.272;10.794;2023-03-13T09:23:17;94930.88;;;13.58;54.17
10978;BME280;5542;48.272;10.794;2023-03-13T09:25:44;94937.22;;;13.63;55.22
10978;BME280;5542;48.272;10.794;2023-03-13T09:28:10;94931.13;;;13.82;53.50
10978;BME280;5542;48.272;10.794;2023-03-13T09:30:38;94930.34;;;13.77;53.47
10978;BME280;5542;48.272;10.794;2023-03-13T09:33:05;94931.38;;;13.76;52.72
10978;BME280;5542;48.272;10.794;2023-03-13T09:35:32;94930.84;;;13.74;53.40
10978;BME280;5542;48.272;10.794;2023-03-13T09:37:58;94917.41;;;13.50;53.69
10978;BME280;5542;48.272;10.794;2023-03-13T09:40:26;94921.91;;;13.49;52.48
10978;BME280;5542;48.272;10.794;2023-03-13T09:42:55;94920.84;;;13.55;53.34
10978;BME280;5542;48.272;10.794;2023-03-13T09:45:29;94915.81;;;13.59;53.97
10978;BME280;5542;48.272;10.794;2023-03-13T09:48:01;94912.84;;;13.81;52.53
10978;BME280;5542;48.272;10.794;2023-03-13T09:50:33;94914.47;;;13.72;52.34
10978;BME280;5542;48.272;10.794;2023-03-13T09:53:04;94923.72;;;13.74;52.85
10978;BME280;5542;48.272;10.794;2023-03-13T09:55:37;94916.56;;;13.80;52.00
10978;BME280;5542;48.272;10.794;2023-03-13T09:58:11;94907.56;;;13.96;52.63
10978;BME280;5542;48.272;10.794;2023-03-13T10:00:42;94905.72;;;13.87;53.54
10978;BME280;5542;48.272;10.794;2023-03-13T10:03:17;94903.50;;;14.14;51.35
10978;BME280;5542;48.272;10.794;2023-03-13T10:05:48;94905.06;;;14.25;51.43
10978;BME280;5542;48.272;10.794;2023-03-13T10:08:17;94887.41;;;14.16;50.97
10978;BME280;5542;48.272;10.794;2023-03-13T10:10:48;94898.00;;;14.11;51.94
10978;BME280;5542;48.272;10.794;2023-03-13T10:13:22;94898.00;;;14.00;52.83
10978;BME280;5542;48.272;10.794;2023-03-13T10:15:54;94905.31;;;14.34;51.59
10978;BME280;5542;48.272;10.794;2023-03-13T10:18:24;94903.16;;;14.41;51.76
10978;BME280;5542;48.272;10.794;2023-03-13T10:20:52;94881.97;;;14.51;51.02
10978;BME280;5542;48.272;10.794;2023-03-13T10:23:26;94881.28;;;14.75;51.94
10978;BME280;5542;48.272;10.794;2023-03-13T10:25:56;94889.09;;;14.95;51.48
10978;BME280;5542;48.272;10.794;2023-03-13T10:28:24;94878.31;;;14.87;52.00
10978;BME280;5542;48.272;10.794;2023-03-13T10:30:56;94872.13;;;15.01;51.96
10978;BME280;5542;48.272;10.794;2023-03-13T10:33:27;94884.25;;;15.07;51.17
10978;BME280;5542;48.272;10.794;2023-03-13T10:36:01;94864.28;;;14.86;51.62
10978;BME280;5542;48.272;10.794;2023-03-13T10:38:32;94874.94;;;14.76;52.33
10978;BME280;5542;48.272;10.794;2023-03-13T10:41:00;94866.16;;;14.80;52.22
10978;BME280;5542;48.272;10.794;2023-03-13T10:43:28;94861.50;;;15.06;51.41
10978;BME280;5542;48.272;10.794;2023-03-13T10:45:54;94868.09;;;15.04;51.80
10978;BME280;5542;48.272;10.794;2023-03-13T10:48:23;94866.19;;;15.15;51.62
10978;BME280;5542;48.272;10.794;2023-03-13T10:50:53;94860.91;;;15.15;51.34
10978;BME280;5542;48.272;10.794;2023-03-13T10:53:24;94873.84;;;15.16;52.04
10978;BME280;5542;48.272;10.794;2023-03-13T10:55:57;94859.63;;;15.36;52.21
10978;BME280;5542;48.272;10.794;2023-03-13T10:58:29;94853.97;;;15.19;51.26
10978;BME280;5542;48.272;10.794;2023-03-13T11:01:12;94857.19;;;15.16;51.31
10978;BME280;5542;48.272;10.794;2023-03-13T11:03:41;94854.53;;;15.16;51.95
10978;BME280;5542;48.272;10.794;2023-03-13T11:06:22;94848.00;;;15.32;51.43
10978;BME280;5542;48.272;10.794;2023-03-13T11:08:57;94850.41;;;15.33;51.75
10978;BME280;5542;48.272;10.794;2023-03-13T11:11:24;94855.75;;;15.52;51.94
10978;BME280;5542;48.272;10.794;2023-03-13T11:13:59;94850.16;;;15.59;51.26
10978;BME280;5542;48.272;10.794;2023-03-13T11:16:38;94828.22;;;15.53;51.25
10978;BME280;5542;48.272;10.794;2023-03-13T11:19:19;94835.59;;;15.56;52.09
10978;BME280;5542;48.272;10.794;2023-03-13T11:21:59;94828.88;;;15.69;50.90
10978;BME280;5542;48.272;10.794;2023-03-13T11:24:38;94822.72;;;15.74;50.44
10978;BME280;5542;48.272;10.794;2023-03-13T11:27:14;94834.72;;;15.66;50.75
10978;BME280;5542;48.272;10.794;2023-03-13T11:29:51;94829.00;;;15.54;50.92
10978;BME280;5542;48.272;10.794;2023-03-13T11:32:22;94836.72;;;15.50;52.11
10978;BME280;5542;48.272;10.794;2023-03-13T11:34:55;94829.19;;;15.62;52.77
10978;BME280;5542;48.272;10.794;2023-03-13T11:37:27;94812.06;;;15.79;52.15
10978;BME280;5542;48.272;10.794;2023-03-13T11:40:02;94819.75;;;15.99;51.69
10978;BME280;5542;48.272;10.794;2023-03-13T11:43:01;94807.97;;;16.10;50.89
10978;BME280;5542;48.272;10.794;2023-03-13T11:45:52;94814.41;;;16.04;51.28
10978;BME280;5542;48.272;10.794;2023-03-13T11:48:47;94810.25;;;15.98;51.02
10978;BME280;5542;48.272;10.794;2023-03-13T11:51:20;94805.22;;;15.97;50.76
10978;BME280;5542;48.272;10.794;2023-03-13T11:54:06;94810.38;;;15.88;51.21
10978;BME280;5542;48.272;10.794;2023-03-13T11:56:42;94798.00;;;16.02;51.17
10978;BME280;5542;48.272;10.794;2023-03-13T11:59:30;94804.03;;;16.08;50.74
10978;BME280;5542;48.272;10.794;2023-03-13T12:02:05;94794.25;;;16.03;51.54
10978;BME280;5542;48.272;10.794;2023-03-13T12:04:40;94784.72;;;16.02;50.93
10978;BME280;5542;48.272;10.794;2023-03-13T12:07:17;94785.03;;;16.01;51.87
10978;BME280;5542;48.272;10.794;2023-03-13T12:09:50;94777.94;;;16.15;52.10
10978;BME280;5542;48.272;10.794;2023-03-13T12:12:25;94782.47;;;16.15;50.65
10978;BME280;5542;48.272;10.794;2023-03-13T12:14:58;94780.06;;;16.13;50.99
10978;BME280;5542;48.272;10.794;2023-03-13T12:17:30;94767.81;;;16.17;50.72
10978;BME280;5542;48.272;10.794;2023-03-13T12:20:03;94776.06;;;16.16;51.51
10978;BME280;5542;48.272;10.794;2023-03-13T12:22:35;94769.91;;;16.20;52.15
10978;BME280;5542;48.272;10.794;2023-03-13T12:25:10;94753.63;;;16.46;50.82
10978;BME280;5542;48.272;10.794;2023-03-13T12:27:40;94751.81;;;16.60;50.72
10978;BME280;5542;48.272;10.794;2023-03-13T12:30:18;94742.13;;;16.69;49.75
10978;BME280;5542;48.272;10.794;2023-03-13T12:32:53;94737.09;;;16.68;48.73
10978;BME280;5542;48.272;10.794;2023-03-13T12:35:25;94741.19;;;16.60;49.09
10978;BME280;5542;48.272;10.794;2023-03-13T12:37:57;94727.63;;;16.61;49.54
10978;BME280;5542;48.272;10.794;2023-03-13T12:40:32;94728.47;;;16.76;49.30
10978;BME280;5542;48.272;10.794;2023-03-13T12:43:03;94716.41;;;16.83;49.46
10978;BME280;5542;48.272;10.794;2023-03-13T12:45:32;94713.97;;;16.87;50.04
10978;BME280;5542;48.272;10.794;2023-03-13T12:48:20;94713.97;;;16.87;49.64
10978;BME280;5542;48.272;10.794;2023-03-13T12:51:08;94708.69;;;17.01;49.84
10978;BME280;5542;48.272;10.794;2023-03-13T12:53:56;94704.00;;;17.25;48.79
10978;BME280;5542;48.272;10.794;2023-03-13T12:57:01;94689.81;;;17.44;48.08
10978;BME280;5542;48.272;10.794;2023-03-13T12:59:32;94679.19;;;17.57;47.26
10978;BME280;5542;48.272;10.794;2023-03-13T13:02:01;94672.69;;;17.50;47.27
10978;BME280;5542;48.272;10.794;2023-03-13T13:04:30;94671.41;;;17.47;47.83
10978;BME280;5542;48.272;10.794;2023-03-13T13:07:00;94656.06;;;17.44;47.44
10978;BME280;5542;48.272;10.794;2023-03-13T13:09:30;94657.25;;;17.38;48.56
10978;BME280;5542;48.272;10.794;2023-03-13T13:11:59;94649.03;;;17.62;47.18
10978;BME280;5542;48.272;10.794;2023-03-13T13:14:54;94655.25;;;17.57;47.56
10978;BME280;5542;48.272;10.794;2023-03-13T13:20:40;94639.97;;;17.63;48.55
10978;BME280;5542;48.272;10.794;2023-03-13T13:23:35;94626.97;;;17.75;47.66
10978;BME280;5542;48.272;10.794;2023-03-13T13:32:40;94608.69;;;17.96;47.14
10978;BME280;5542;48.272;10.794;2023-03-13T13:35:23;94605.59;;;18.03;47.21
10978;BME280;5542;48.272;10.794;2023-03-13T13:37:50;94594.84;;;18.08;47.36